PWSweather.com
Personal Weather Stations
Station Observations
ITROMSHA6
HarstadNO 9407

HarstadNO 9407

Lat: 68.7814767, Lon: 16.5297091

Elevation: 145

Station Type: Davis Vantage Pro2

High Low Average
Temperature 59.5°F15.3°C 53.7°F12.1°C 55.9°F13.3°C
Dew Point 50.5°F10.3°C 44.8°F7.1°C 48.8°F9.3°C
Winds 14.0 mph 22.5 kmh Calm Calm 5.0 mph SSW8.0 kmh SSW
Wind Gusts 17.0 mph27.4 kmh -- 2.0 mph3.2 kmh
Humidity 88% 59% 77%
Pressure 29.68 in1005.1 mb 29.59 in1002.0 mb -
Precipitation 0.01 in0.3 mm - -
Hour Temp Dew Point Humidity Winds Wind Gusts Pressure Precip Precip Rate Daily Precip Total
12:00 AM 55.9°F13.3°C 48.6°F9.2°C 76% Calm Calm 4.0 mph6.4 kmh 29.59 in1002.0 mb 0.00 in0.0 mm 0.00 in0.0 mm 0.00 in0.0 mm
12:05 AM 55.7°F13.2°C 48.7°F9.3°C 77% 1.0 mph SW1.6 kmh SW -- 29.59 in1002.0 mb 0.00 in0.0 mm 0.00 in0.0 mm 0.00 in0.0 mm
12:10 AM 55.6°F13.1°C 48.7°F9.3°C 78% Calm Calm -- 29.59 in1002.0 mb 0.00 in0.0 mm 0.00 in0.0 mm 0.00 in0.0 mm
12:15 AM 55.3°F12.9°C 48.7°F9.3°C 79% 1.0 mph S1.6 kmh S -- 29.59 in1002.0 mb 0.00 in0.0 mm 0.00 in0.0 mm 0.00 in0.0 mm
12:20 AM 55.1°F12.8°C 48.6°F9.2°C 79% 4.0 mph S6.4 kmh S -- 29.59 in1002.0 mb 0.00 in0.0 mm 0.00 in0.0 mm 0.00 in0.0 mm
12:25 AM 55.3°F12.9°C 49.1°F9.5°C 80% 6.0 mph S9.7 kmh S 9.0 mph14.5 kmh 29.59 in1002.0 mb 0.00 in0.0 mm 0.00 in0.0 mm 0.00 in0.0 mm
12:30 AM 55.3°F12.9°C 49.1°F9.5°C 80% 4.0 mph SSE6.4 kmh SSE -- 29.59 in1002.0 mb 0.00 in0.0 mm 0.00 in0.0 mm 0.00 in0.0 mm
12:35 AM 55.3°F12.9°C 49.1°F9.5°C 80% 6.0 mph SSW9.7 kmh SSW -- 29.59 in1002.0 mb 0.00 in0.0 mm 0.00 in0.0 mm 0.00 in0.0 mm
12:40 AM 55.2°F12.9°C 49.5°F9.7°C 81% 8.0 mph S12.9 kmh S -- 29.60 in1002.4 mb 0.00 in0.0 mm 0.00 in0.0 mm 0.00 in0.0 mm
12:45 AM 55.1°F12.8°C 49.3°F9.6°C 81% 9.0 mph SW14.5 kmh SW -- 29.60 in1002.4 mb 0.00 in0.0 mm 0.00 in0.0 mm 0.00 in0.0 mm
12:50 AM 55.0°F12.8°C 49.6°F9.8°C 82% 8.0 mph S12.9 kmh S 17.0 mph27.4 kmh 29.59 in1002.0 mb 0.00 in0.0 mm 0.00 in0.0 mm 0.00 in0.0 mm
12:55 AM 54.8°F12.7°C 49.5°F9.7°C 82% 7.0 mph SW11.3 kmh SW -- 29.59 in1002.0 mb 0.00 in0.0 mm 0.00 in0.0 mm 0.00 in0.0 mm
01:00 AM 54.9°F12.7°C 49.5°F9.7°C 82% 9.0 mph SSW14.5 kmh SSW -- 29.59 in1002.0 mb 0.00 in0.0 mm 0.00 in0.0 mm 0.00 in0.0 mm
01:05 AM 55.0°F12.8°C 49.6°F9.8°C 82% 6.0 mph SW9.7 kmh SW -- 29.60 in1002.4 mb 0.00 in0.0 mm 0.00 in0.0 mm 0.00 in0.0 mm
01:10 AM 54.9°F12.7°C 49.5°F9.7°C 82% 7.0 mph WSW11.3 kmh WSW -- 29.59 in1002.0 mb 0.00 in0.0 mm 0.00 in0.0 mm 0.00 in0.0 mm
01:15 AM 54.8°F12.7°C 49.8°F9.9°C 83% 7.0 mph WSW11.3 kmh WSW 12.0 mph19.3 kmh 29.59 in1002.0 mb 0.00 in0.0 mm 0.00 in0.0 mm 0.00 in0.0 mm
01:20 AM 54.9°F12.7°C 49.8°F9.9°C 83% 8.0 mph WSW12.9 kmh WSW -- 29.59 in1002.0 mb 0.00 in0.0 mm 0.00 in0.0 mm 0.00 in0.0 mm
01:25 AM 54.7°F12.6°C 49.6°F9.8°C 83% 11.0 mph WSW17.7 kmh WSW -- 29.59 in1002.0 mb 0.00 in0.0 mm 0.00 in0.0 mm 0.00 in0.0 mm
01:30 AM 54.7°F12.6°C 50.0°F10.0°C 84% 10.0 mph WSW16.1 kmh WSW -- 29.59 in1002.0 mb 0.00 in0.0 mm 0.00 in0.0 mm 0.00 in0.0 mm
01:35 AM 54.5°F12.5°C 49.8°F9.9°C 84% 6.0 mph S9.7 kmh S -- 29.60 in1002.4 mb 0.01 in0.3 mm 0.12 in3.0 mm 0.01 in0.3 mm
01:40 AM 54.4°F12.4°C 49.8°F9.9°C 85% 8.0 mph SW12.9 kmh SW 12.0 mph19.3 kmh 29.60 in1002.4 mb 0.01 in0.3 mm 0.00 in0.0 mm 0.01 in0.3 mm
01:45 AM 54.4°F12.4°C 49.8°F9.9°C 85% 7.0 mph S11.3 kmh S -- 29.60 in1002.4 mb 0.01 in0.3 mm 0.00 in0.0 mm 0.01 in0.3 mm
01:50 AM 54.4°F12.4°C 49.6°F9.8°C 84% 4.0 mph WSW6.4 kmh WSW -- 29.59 in1002.0 mb 0.01 in0.3 mm 0.00 in0.0 mm 0.01 in0.3 mm
01:55 AM 54.5°F12.5°C 49.8°F9.9°C 84% 4.0 mph S6.4 kmh S -- 29.60 in1002.4 mb 0.01 in0.3 mm 0.00 in0.0 mm 0.01 in0.3 mm
02:00 AM 54.5°F12.5°C 49.8°F9.9°C 84% 2.0 mph SSE3.2 kmh SSE -- 29.60 in1002.4 mb 0.01 in0.3 mm 0.00 in0.0 mm 0.01 in0.3 mm
02:05 AM 54.4°F12.4°C 49.8°F9.9°C 85% 7.0 mph SW11.3 kmh SW 16.0 mph25.7 kmh 29.60 in1002.4 mb 0.01 in0.3 mm 0.00 in0.0 mm 0.01 in0.3 mm
02:10 AM 54.4°F12.4°C 49.8°F9.9°C 85% 5.0 mph WSW8.0 kmh WSW -- 29.60 in1002.4 mb 0.01 in0.3 mm 0.00 in0.0 mm 0.01 in0.3 mm
02:15 AM 54.6°F12.6°C 50.0°F10.0°C 84% 10.0 mph SW16.1 kmh SW -- 29.61 in1002.7 mb 0.01 in0.3 mm 0.00 in0.0 mm 0.01 in0.3 mm
02:20 AM 54.8°F12.7°C 50.2°F10.1°C 84% 5.0 mph SW8.0 kmh SW -- 29.61 in1002.7 mb 0.01 in0.3 mm 0.00 in0.0 mm 0.01 in0.3 mm
02:25 AM 54.8°F12.7°C 50.2°F10.1°C 84% 3.0 mph WSW4.8 kmh WSW -- 29.62 in1003.0 mb 0.01 in0.3 mm 0.00 in0.0 mm 0.01 in0.3 mm
02:30 AM 54.9°F12.7°C 50.2°F10.1°C 84% 5.0 mph S8.0 kmh S 14.0 mph22.5 kmh 29.62 in1003.0 mb 0.01 in0.3 mm 0.00 in0.0 mm 0.01 in0.3 mm
02:35 AM 54.8°F12.7°C 50.2°F10.1°C 84% 5.0 mph SSW8.0 kmh SSW -- 29.62 in1003.0 mb 0.00 in0.0 mm 0.00 in0.0 mm 0.01 in0.3 mm
02:40 AM 54.7°F12.6°C 50.0°F10.0°C 84% 6.0 mph S9.7 kmh S -- 29.62 in1003.0 mb 0.00 in0.0 mm 0.00 in0.0 mm 0.01 in0.3 mm
02:45 AM 54.6°F12.6°C 50.2°F10.1°C 85% 4.0 mph S6.4 kmh S -- 29.62 in1003.0 mb 0.00 in0.0 mm 0.00 in0.0 mm 0.01 in0.3 mm
02:50 AM 54.5°F12.5°C 50.0°F10.0°C 85% 4.0 mph SSE6.4 kmh SSE -- 29.61 in1002.7 mb 0.00 in0.0 mm 0.00 in0.0 mm 0.01 in0.3 mm
02:55 AM 54.5°F12.5°C 50.4°F10.2°C 86% 4.0 mph SW6.4 kmh SW 11.0 mph17.7 kmh 29.62 in1003.0 mb 0.00 in0.0 mm 0.00 in0.0 mm 0.01 in0.3 mm
03:00 AM 54.4°F12.4°C 50.2°F10.1°C 86% 4.0 mph SSE6.4 kmh SSE -- 29.61 in1002.7 mb 0.00 in0.0 mm 0.00 in0.0 mm 0.01 in0.3 mm
03:05 AM 54.3°F12.4°C 50.2°F10.1°C 86% 3.0 mph S4.8 kmh S -- 29.61 in1002.7 mb 0.00 in0.0 mm 0.00 in0.0 mm 0.01 in0.3 mm
03:10 AM 54.3°F12.4°C 50.2°F10.1°C 86% 3.0 mph S4.8 kmh S -- 29.61 in1002.7 mb 0.00 in0.0 mm 0.00 in0.0 mm 0.01 in0.3 mm
03:15 AM 54.2°F12.3°C 50.4°F10.2°C 87% 3.0 mph SW4.8 kmh SW -- 29.61 in1002.7 mb 0.00 in0.0 mm 0.00 in0.0 mm 0.01 in0.3 mm
03:20 AM 54.1°F12.3°C 50.4°F10.2°C 87% 3.0 mph SSW4.8 kmh SSW 7.0 mph11.3 kmh 29.61 in1002.7 mb 0.00 in0.0 mm 0.00 in0.0 mm 0.01 in0.3 mm
03:25 AM 54.1°F12.3°C 50.4°F10.2°C 87% 5.0 mph SSW8.0 kmh SSW -- 29.60 in1002.4 mb 0.00 in0.0 mm 0.00 in0.0 mm 0.01 in0.3 mm
03:30 AM 54.1°F12.3°C 50.4°F10.2°C 87% 4.0 mph S6.4 kmh S -- 29.60 in1002.4 mb 0.00 in0.0 mm 0.00 in0.0 mm 0.01 in0.3 mm
03:35 AM 54.1°F12.3°C 50.4°F10.2°C 87% 3.0 mph SW4.8 kmh SW -- 29.60 in1002.4 mb 0.00 in0.0 mm 0.00 in0.0 mm 0.01 in0.3 mm
03:40 AM 54.0°F12.2°C 50.2°F10.1°C 87% 7.0 mph SSW11.3 kmh SSW -- 29.60 in1002.4 mb 0.00 in0.0 mm 0.00 in0.0 mm 0.01 in0.3 mm
03:45 AM 54.1°F12.3°C 50.4°F10.2°C 87% 7.0 mph SW11.3 kmh SW 12.0 mph19.3 kmh 29.61 in1002.7 mb 0.00 in0.0 mm 0.00 in0.0 mm 0.01 in0.3 mm
03:50 AM 54.3°F12.4°C 50.5°F10.3°C 87% 3.0 mph S4.8 kmh S -- 29.61 in1002.7 mb 0.00 in0.0 mm 0.00 in0.0 mm 0.01 in0.3 mm
03:55 AM 54.4°F12.4°C 50.2°F10.1°C 86% 7.0 mph SSW11.3 kmh SSW -- 29.62 in1003.0 mb 0.00 in0.0 mm 0.00 in0.0 mm 0.01 in0.3 mm
04:00 AM 54.4°F12.4°C 50.2°F10.1°C 86% 6.0 mph S9.7 kmh S -- 29.62 in1003.0 mb 0.00 in0.0 mm 0.00 in0.0 mm 0.01 in0.3 mm
04:05 AM 54.3°F12.4°C 50.5°F10.3°C 87% 7.0 mph S11.3 kmh S -- 29.63 in1003.4 mb 0.00 in0.0 mm 0.00 in0.0 mm 0.01 in0.3 mm
04:10 AM 54.3°F12.4°C 50.5°F10.3°C 87% 1.0 mph S1.6 kmh S 9.0 mph14.5 kmh 29.62 in1003.0 mb 0.00 in0.0 mm 0.00 in0.0 mm 0.01 in0.3 mm
04:15 AM 54.1°F12.3°C 50.4°F10.2°C 87% 4.0 mph SSW6.4 kmh SSW -- 29.62 in1003.0 mb 0.00 in0.0 mm 0.00 in0.0 mm 0.01 in0.3 mm
04:20 AM 54.0°F12.2°C 50.2°F10.1°C 87% 5.0 mph SSW8.0 kmh SSW -- 29.61 in1002.7 mb 0.00 in0.0 mm 0.00 in0.0 mm 0.01 in0.3 mm
04:25 AM 53.8°F12.1°C 50.4°F10.2°C 88% 4.0 mph SW6.4 kmh SW -- 29.61 in1002.7 mb 0.00 in0.0 mm 0.00 in0.0 mm 0.01 in0.3 mm
04:30 AM 53.7°F12.1°C 50.4°F10.2°C 88% 5.0 mph WSW8.0 kmh WSW -- 29.61 in1002.7 mb 0.00 in0.0 mm 0.00 in0.0 mm 0.01 in0.3 mm
04:35 AM 53.7°F12.1°C 50.4°F10.2°C 88% 4.0 mph SW6.4 kmh SW 7.0 mph11.3 kmh 29.60 in1002.4 mb 0.00 in0.0 mm 0.00 in0.0 mm 0.01 in0.3 mm
04:40 AM 53.8°F12.1°C 50.0°F10.0°C 87% 6.0 mph SW9.7 kmh SW -- 29.61 in1002.7 mb 0.00 in0.0 mm 0.00 in0.0 mm 0.01 in0.3 mm
04:45 AM 54.0°F12.2°C 49.8°F9.9°C 86% 4.0 mph SW6.4 kmh SW -- 29.61 in1002.7 mb 0.00 in0.0 mm 0.00 in0.0 mm 0.01 in0.3 mm
04:50 AM 54.3°F12.4°C 49.8°F9.9°C 85% 4.0 mph SW6.4 kmh SW -- 29.61 in1002.7 mb 0.00 in0.0 mm 0.00 in0.0 mm 0.01 in0.3 mm
04:55 AM 54.6°F12.6°C 49.6°F9.8°C 83% 5.0 mph SW8.0 kmh SW -- 29.61 in1002.7 mb 0.00 in0.0 mm 0.00 in0.0 mm 0.01 in0.3 mm
05:00 AM 54.7°F12.6°C 49.6°F9.8°C 83% 8.0 mph S12.9 kmh S 9.0 mph14.5 kmh 29.62 in1003.0 mb 0.00 in0.0 mm 0.00 in0.0 mm 0.01 in0.3 mm
05:05 AM 54.7°F12.6°C 49.6°F9.8°C 83% 9.0 mph SSW14.5 kmh SSW -- 29.62 in1003.0 mb 0.00 in0.0 mm 0.00 in0.0 mm 0.01 in0.3 mm
05:10 AM 54.6°F12.6°C 50.0°F10.0°C 84% 5.0 mph SW8.0 kmh SW -- 29.62 in1003.0 mb 0.00 in0.0 mm 0.00 in0.0 mm 0.01 in0.3 mm
05:15 AM 54.5°F12.5°C 49.8°F9.9°C 84% 3.0 mph SW4.8 kmh SW -- 29.61 in1002.7 mb 0.00 in0.0 mm 0.00 in0.0 mm 0.01 in0.3 mm
05:20 AM 54.4°F12.4°C 49.6°F9.8°C 84% 5.0 mph WSW8.0 kmh WSW -- 29.61 in1002.7 mb 0.00 in0.0 mm 0.00 in0.0 mm 0.01 in0.3 mm
05:25 AM 54.6°F12.6°C 49.6°F9.8°C 83% 3.0 mph WSW4.8 kmh WSW 9.0 mph14.5 kmh 29.61 in1002.7 mb 0.00 in0.0 mm 0.00 in0.0 mm 0.01 in0.3 mm
05:30 AM 54.7°F12.6°C 49.3°F9.6°C 82% 7.0 mph SW11.3 kmh SW -- 29.61 in1002.7 mb 0.00 in0.0 mm 0.00 in0.0 mm 0.01 in0.3 mm
05:35 AM 54.8°F12.7°C 49.5°F9.7°C 82% 3.0 mph WSW4.8 kmh WSW -- 29.62 in1003.0 mb 0.00 in0.0 mm 0.00 in0.0 mm 0.01 in0.3 mm
05:40 AM 54.9°F12.7°C 49.1°F9.5°C 81% 2.0 mph SW3.2 kmh SW -- 29.62 in1003.0 mb 0.00 in0.0 mm 0.00 in0.0 mm 0.01 in0.3 mm
05:45 AM 55.0°F12.8°C 49.3°F9.6°C 81% Calm Calm -- 29.62 in1003.0 mb 0.00 in0.0 mm 0.00 in0.0 mm 0.01 in0.3 mm
05:50 AM 55.0°F12.8°C 49.3°F9.6°C 81% Calm Calm 3.0 mph4.8 kmh 29.62 in1003.0 mb 0.00 in0.0 mm 0.00 in0.0 mm 0.01 in0.3 mm
05:55 AM 54.9°F12.7°C 49.5°F9.7°C 82% 1.0 mph S1.6 kmh S -- 29.62 in1003.0 mb 0.00 in0.0 mm 0.00 in0.0 mm 0.01 in0.3 mm
06:00 AM 54.7°F12.6°C 49.3°F9.6°C 82% 4.0 mph SW6.4 kmh SW -- 29.62 in1003.0 mb 0.00 in0.0 mm 0.00 in0.0 mm 0.01 in0.3 mm
06:05 AM 54.8°F12.7°C 49.5°F9.7°C 82% 4.0 mph SW6.4 kmh SW -- 29.62 in1003.0 mb 0.00 in0.0 mm 0.00 in0.0 mm 0.01 in0.3 mm
06:10 AM 55.0°F12.8°C 49.3°F9.6°C 81% 2.0 mph SW3.2 kmh SW -- 29.62 in1003.0 mb 0.00 in0.0 mm 0.00 in0.0 mm 0.01 in0.3 mm
06:15 AM 55.1°F12.8°C 49.3°F9.6°C 81% 4.0 mph SW6.4 kmh SW 7.0 mph11.3 kmh 29.61 in1002.7 mb 0.00 in0.0 mm 0.00 in0.0 mm 0.01 in0.3 mm
06:20 AM 55.3°F12.9°C 49.5°F9.7°C 81% 1.0 mph SW1.6 kmh SW -- 29.62 in1003.0 mb 0.00 in0.0 mm 0.00 in0.0 mm 0.01 in0.3 mm
06:25 AM 55.5°F13.1°C 49.5°F9.7°C 80% 2.0 mph WSW3.2 kmh WSW -- 29.62 in1003.0 mb 0.00 in0.0 mm 0.00 in0.0 mm 0.01 in0.3 mm
06:30 AM 55.6°F13.1°C 49.5°F9.7°C 80% 5.0 mph SW8.0 kmh SW -- 29.62 in1003.0 mb 0.00 in0.0 mm 0.00 in0.0 mm 0.01 in0.3 mm
06:35 AM 55.7°F13.2°C 49.3°F9.6°C 79% 2.0 mph SW3.2 kmh SW -- 29.62 in1003.0 mb 0.00 in0.0 mm 0.00 in0.0 mm 0.01 in0.3 mm
06:40 AM 55.7°F13.2°C 49.3°F9.6°C 79% 2.0 mph SW3.2 kmh SW 7.0 mph11.3 kmh 29.62 in1003.0 mb 0.00 in0.0 mm 0.00 in0.0 mm 0.01 in0.3 mm
06:45 AM 55.6°F13.1°C 49.1°F9.5°C 79% 6.0 mph SW9.7 kmh SW -- 29.62 in1003.0 mb 0.00 in0.0 mm 0.00 in0.0 mm 0.01 in0.3 mm
06:50 AM 55.7°F13.2°C 49.3°F9.6°C 79% 5.0 mph SSW8.0 kmh SSW -- 29.62 in1003.0 mb 0.00 in0.0 mm 0.00 in0.0 mm 0.01 in0.3 mm
06:55 AM 55.8°F13.2°C 49.6°F9.8°C 80% 5.0 mph WSW8.0 kmh WSW -- 29.62 in1003.0 mb 0.00 in0.0 mm 0.00 in0.0 mm 0.01 in0.3 mm
07:00 AM 55.8°F13.2°C 49.3°F9.6°C 79% 5.0 mph W8.0 kmh W -- 29.62 in1003.0 mb 0.00 in0.0 mm 0.00 in0.0 mm 0.01 in0.3 mm
07:05 AM 56.0°F13.3°C 49.5°F9.7°C 79% 4.0 mph SSW6.4 kmh SSW 8.0 mph12.9 kmh 29.62 in1003.0 mb 0.00 in0.0 mm 0.00 in0.0 mm 0.01 in0.3 mm
07:10 AM 56.1°F13.4°C 49.6°F9.8°C 79% 2.0 mph SW3.2 kmh SW -- 29.62 in1003.0 mb 0.00 in0.0 mm 0.00 in0.0 mm 0.01 in0.3 mm
07:15 AM 56.0°F13.3°C 49.1°F9.5°C 78% 5.0 mph SW8.0 kmh SW -- 29.62 in1003.0 mb 0.00 in0.0 mm 0.00 in0.0 mm 0.01 in0.3 mm
07:20 AM 56.0°F13.3°C 48.9°F9.4°C 77% 5.0 mph WSW8.0 kmh WSW -- 29.63 in1003.4 mb 0.00 in0.0 mm 0.00 in0.0 mm 0.01 in0.3 mm
07:25 AM 56.1°F13.4°C 48.9°F9.4°C 77% 4.0 mph SW6.4 kmh SW -- 29.63 in1003.4 mb 0.00 in0.0 mm 0.00 in0.0 mm 0.01 in0.3 mm
07:30 AM 56.3°F13.5°C 48.9°F9.4°C 76% 5.0 mph SW8.0 kmh SW 10.0 mph16.1 kmh 29.63 in1003.4 mb 0.00 in0.0 mm 0.00 in0.0 mm 0.01 in0.3 mm
07:35 AM 56.3°F13.5°C 48.6°F9.2°C 75% 6.0 mph SSW9.7 kmh SSW -- 29.63 in1003.4 mb 0.00 in0.0 mm 0.00 in0.0 mm 0.01 in0.3 mm
07:40 AM 56.2°F13.4°C 48.4°F9.1°C 75% 3.0 mph SW4.8 kmh SW -- 29.63 in1003.4 mb 0.00 in0.0 mm 0.00 in0.0 mm 0.01 in0.3 mm
07:45 AM 56.1°F13.4°C 48.4°F9.1°C 75% 4.0 mph SW6.4 kmh SW -- 29.64 in1003.7 mb 0.00 in0.0 mm 0.00 in0.0 mm 0.01 in0.3 mm
07:50 AM 56.1°F13.4°C 48.4°F9.1°C 75% 5.0 mph SW8.0 kmh SW -- 29.64 in1003.7 mb 0.00 in0.0 mm 0.00 in0.0 mm 0.01 in0.3 mm
07:55 AM 56.1°F13.4°C 48.4°F9.1°C 75% 6.0 mph SW9.7 kmh SW 9.0 mph14.5 kmh 29.64 in1003.7 mb 0.00 in0.0 mm 0.00 in0.0 mm 0.01 in0.3 mm
08:00 AM 56.2°F13.4°C 48.0°F8.9°C 74% 6.0 mph SW9.7 kmh SW -- 29.64 in1003.7 mb 0.00 in0.0 mm 0.00 in0.0 mm 0.01 in0.3 mm
08:05 AM 56.4°F13.6°C 48.4°F9.1°C 74% 3.0 mph SSW4.8 kmh SSW -- 29.64 in1003.7 mb 0.00 in0.0 mm 0.00 in0.0 mm 0.01 in0.3 mm
08:10 AM 56.4°F13.6°C 48.4°F9.1°C 74% 7.0 mph SW11.3 kmh SW -- 29.64 in1003.7 mb 0.00 in0.0 mm 0.00 in0.0 mm 0.01 in0.3 mm
08:15 AM 56.3°F13.5°C 48.2°F9.0°C 74% 6.0 mph SW9.7 kmh SW -- 29.64 in1003.7 mb 0.00 in0.0 mm 0.00 in0.0 mm 0.01 in0.3 mm
08:20 AM 56.5°F13.6°C 48.7°F9.3°C 75% 6.0 mph S9.7 kmh S 9.0 mph14.5 kmh 29.64 in1003.7 mb 0.00 in0.0 mm 0.00 in0.0 mm 0.01 in0.3 mm
08:25 AM 57.0°F13.9°C 48.7°F9.3°C 74% 4.0 mph S6.4 kmh S -- 29.64 in1003.7 mb 0.00 in0.0 mm 0.00 in0.0 mm 0.01 in0.3 mm
08:30 AM 57.5°F14.2°C 48.6°F9.2°C 72% 5.0 mph SSW8.0 kmh SSW -- 29.64 in1003.7 mb 0.00 in0.0 mm 0.00 in0.0 mm 0.01 in0.3 mm
08:35 AM 57.8°F14.3°C 48.4°F9.1°C 71% 5.0 mph SW8.0 kmh SW -- 29.64 in1003.7 mb 0.00 in0.0 mm 0.00 in0.0 mm 0.01 in0.3 mm
08:40 AM 57.7°F14.3°C 48.0°F8.9°C 70% 3.0 mph SW4.8 kmh SW -- 29.64 in1003.7 mb 0.00 in0.0 mm 0.00 in0.0 mm 0.01 in0.3 mm
08:45 AM 57.9°F14.4°C 48.2°F9.0°C 70% 5.0 mph S8.0 kmh S 12.0 mph19.3 kmh 29.64 in1003.7 mb 0.00 in0.0 mm 0.00 in0.0 mm 0.01 in0.3 mm
08:50 AM 58.0°F14.4°C 47.8°F8.8°C 69% 4.0 mph SW6.4 kmh SW -- 29.65 in1004.1 mb 0.00 in0.0 mm 0.00 in0.0 mm 0.01 in0.3 mm
08:55 AM 57.6°F14.2°C 47.5°F8.6°C 69% 3.0 mph SW4.8 kmh SW -- 29.65 in1004.1 mb 0.00 in0.0 mm 0.00 in0.0 mm 0.01 in0.3 mm
09:00 AM 57.5°F14.2°C 47.8°F8.8°C 70% 8.0 mph SW12.9 kmh SW -- 29.65 in1004.1 mb 0.00 in0.0 mm 0.00 in0.0 mm 0.01 in0.3 mm
09:05 AM 57.4°F14.1°C 47.3°F8.5°C 69% 9.0 mph WSW14.5 kmh WSW -- 29.65 in1004.1 mb 0.00 in0.0 mm 0.00 in0.0 mm 0.01 in0.3 mm
09:10 AM 57.1°F13.9°C 46.9°F8.3°C 69% 5.0 mph WSW8.0 kmh WSW 16.0 mph25.7 kmh 29.65 in1004.1 mb 0.00 in0.0 mm 0.00 in0.0 mm 0.01 in0.3 mm
09:15 AM 57.5°F14.2°C 47.8°F8.8°C 70% 6.0 mph SSW9.7 kmh SSW -- 29.65 in1004.1 mb 0.00 in0.0 mm 0.00 in0.0 mm 0.01 in0.3 mm
09:20 AM 57.6°F14.2°C 47.5°F8.6°C 69% 12.0 mph SW19.3 kmh SW -- 29.65 in1004.1 mb 0.00 in0.0 mm 0.00 in0.0 mm 0.01 in0.3 mm
09:25 AM 57.7°F14.3°C 47.3°F8.5°C 68% 14.0 mph SSW22.5 kmh SSW -- 29.64 in1003.7 mb 0.00 in0.0 mm 0.00 in0.0 mm 0.01 in0.3 mm
09:30 AM 57.8°F14.3°C 47.3°F8.5°C 68% 11.0 mph S17.7 kmh S -- 29.65 in1004.1 mb 0.00 in0.0 mm 0.00 in0.0 mm 0.01 in0.3 mm
09:35 AM 57.8°F14.3°C 46.9°F8.3°C 67% 8.0 mph S12.9 kmh S 15.0 mph24.1 kmh 29.65 in1004.1 mb 0.00 in0.0 mm 0.00 in0.0 mm 0.01 in0.3 mm
09:40 AM 57.8°F14.3°C 46.9°F8.3°C 67% 7.0 mph SSE11.3 kmh SSE -- 29.65 in1004.1 mb 0.00 in0.0 mm 0.00 in0.0 mm 0.01 in0.3 mm
09:45 AM 58.1°F14.5°C 47.1°F8.4°C 67% 4.0 mph S6.4 kmh S -- 29.65 in1004.1 mb 0.00 in0.0 mm 0.00 in0.0 mm 0.01 in0.3 mm
09:50 AM 58.3°F14.6°C 46.9°F8.3°C 66% 5.0 mph SE8.0 kmh SE -- 29.66 in1004.4 mb 0.00 in0.0 mm 0.00 in0.0 mm 0.01 in0.3 mm
09:55 AM 58.3°F14.6°C 46.6°F8.1°C 65% 5.0 mph ESE8.0 kmh ESE -- 29.65 in1004.1 mb 0.00 in0.0 mm 0.00 in0.0 mm 0.01 in0.3 mm
10:00 AM 58.4°F14.7°C 46.8°F8.2°C 65% 7.0 mph SE11.3 kmh SE 14.0 mph22.5 kmh 29.65 in1004.1 mb 0.00 in0.0 mm 0.00 in0.0 mm 0.01 in0.3 mm
10:05 AM 58.3°F14.6°C 46.6°F8.1°C 65% Calm Calm -- 29.65 in1004.1 mb 0.00 in0.0 mm 0.00 in0.0 mm 0.01 in0.3 mm
10:10 AM 58.5°F14.7°C 46.4°F8.0°C 64% 6.0 mph E9.7 kmh E -- 29.66 in1004.4 mb 0.00 in0.0 mm 0.00 in0.0 mm 0.01 in0.3 mm
10:15 AM 58.3°F14.6°C 46.2°F7.9°C 64% 6.0 mph SE9.7 kmh SE -- 29.66 in1004.4 mb 0.00 in0.0 mm 0.00 in0.0 mm 0.01 in0.3 mm
10:20 AM 58.4°F14.7°C 46.4°F8.0°C 64% 7.0 mph SE11.3 kmh SE -- 29.66 in1004.4 mb 0.00 in0.0 mm 0.00 in0.0 mm 0.01 in0.3 mm
10:25 AM 58.8°F14.9°C 47.5°F8.6°C 66% 1.0 mph NE1.6 kmh NE 14.0 mph22.5 kmh 29.66 in1004.4 mb 0.00 in0.0 mm 0.00 in0.0 mm 0.01 in0.3 mm
10:30 AM 59.1°F15.1°C 46.2°F7.9°C 62% Calm Calm -- 29.67 in1004.7 mb 0.00 in0.0 mm 0.00 in0.0 mm 0.01 in0.3 mm
10:35 AM 59.3°F15.2°C 46.8°F8.2°C 63% Calm Calm -- 29.67 in1004.7 mb 0.00 in0.0 mm 0.00 in0.0 mm 0.01 in0.3 mm
10:40 AM 59.5°F15.3°C 46.6°F8.1°C 62% 3.0 mph E4.8 kmh E -- 29.67 in1004.7 mb 0.00 in0.0 mm 0.00 in0.0 mm 0.01 in0.3 mm
10:45 AM 59.5°F15.3°C 46.6°F8.1°C 62% 4.0 mph S6.4 kmh S -- 29.67 in1004.7 mb 0.00 in0.0 mm 0.00 in0.0 mm 0.01 in0.3 mm
10:50 AM 59.4°F15.2°C 46.8°F8.2°C 63% 8.0 mph ESE12.9 kmh ESE 8.0 mph12.9 kmh 29.67 in1004.7 mb 0.00 in0.0 mm 0.00 in0.0 mm 0.01 in0.3 mm
10:55 AM 59.3°F15.2°C 45.9°F7.7°C 61% 6.0 mph SSE9.7 kmh SSE -- 29.67 in1004.7 mb 0.00 in0.0 mm 0.00 in0.0 mm 0.01 in0.3 mm
11:00 AM 59.5°F15.3°C 45.7°F7.6°C 60% 5.0 mph SW8.0 kmh SW -- 29.67 in1004.7 mb 0.00 in0.0 mm 0.00 in0.0 mm 0.01 in0.3 mm
11:05 AM 59.4°F15.2°C 45.5°F7.5°C 60% 5.0 mph SE8.0 kmh SE -- 29.68 in1005.1 mb 0.00 in0.0 mm 0.00 in0.0 mm 0.01 in0.3 mm
11:10 AM 59.0°F15.0°C 44.8°F7.1°C 59% 4.0 mph SE6.4 kmh SE -- 29.68 in1005.1 mb 0.00 in0.0 mm 0.00 in0.0 mm 0.01 in0.3 mm
11:15 AM 59.2°F15.1°C 45.7°F7.6°C 61% 6.0 mph ESE9.7 kmh ESE 10.0 mph16.1 kmh 29.67 in1004.7 mb 0.00 in0.0 mm 0.00 in0.0 mm 0.01 in0.3 mm
11:20 AM 59.1°F15.1°C 45.3°F7.4°C 60% 1.0 mph SE1.6 kmh SE -- 29.68 in1005.1 mb 0.00 in0.0 mm 0.00 in0.0 mm 0.01 in0.3 mm
11:25 AM 58.9°F14.9°C 45.0°F7.2°C 60% 4.0 mph W6.4 kmh W -- 29.68 in1005.1 mb 0.00 in0.0 mm 0.00 in0.0 mm 0.01 in0.3 mm
11:30 AM 58.4°F14.7°C 45.5°F7.5°C 62% 7.0 mph ENE11.3 kmh ENE -- 29.68 in1005.1 mb 0.00 in0.0 mm 0.00 in0.0 mm 0.01 in0.3 mm
11:35 AM 58.2°F14.6°C 45.3°F7.4°C 62% 1.0 mph W1.6 kmh W -- 29.68 in1005.1 mb 0.00 in0.0 mm 0.00 in0.0 mm 0.01 in0.3 mm
11:40 AM 58.7°F14.8°C 45.7°F7.6°C 62% 7.0 mph NNE11.3 kmh NNE 10.0 mph16.1 kmh 29.68 in1005.1 mb 0.00 in0.0 mm 0.00 in0.0 mm 0.01 in0.3 mm